createdAt,value
2023-05-14T00:00:33.629Z,7.20
2023-05-14T00:03:20.938Z,7.97
2023-05-14T00:05:48.580Z,7.07
2023-05-14T00:08:15.868Z,6.55
2023-05-14T00:10:43.349Z,7.82
2023-05-14T00:13:10.533Z,6.45
2023-05-14T00:15:38.135Z,6.57
2023-05-14T00:18:05.458Z,7.15
2023-05-14T00:20:32.998Z,7.20
2023-05-14T00:23:00.512Z,8.02
2023-05-14T00:25:28.209Z,6.15
2023-05-14T00:27:55.381Z,5.20
2023-05-14T00:30:23.005Z,6.07
2023-05-14T00:32:50.410Z,5.93
2023-05-14T00:35:36.631Z,5.32
2023-05-14T00:38:15.437Z,6.18
2023-05-14T00:40:43.208Z,5.10
2023-05-14T00:43:10.438Z,6.25
2023-05-14T00:45:38.482Z,5.93
2023-05-14T00:48:05.672Z,6.88
2023-05-14T00:50:33.553Z,5.70
2023-05-14T00:53:00.744Z,5.97
2023-05-14T00:55:29.987Z,5.85
2023-05-14T00:57:57.997Z,6.10
2023-05-14T01:00:26.065Z,6.60
2023-05-14T01:02:53.462Z,6.63
2023-05-14T01:05:22.204Z,7.28
2023-05-14T01:07:56.661Z,5.65
2023-05-14T01:10:38.722Z,6.20
2023-05-14T01:13:16.681Z,6.50
2023-05-14T01:15:44.885Z,6.53
2023-05-14T01:18:14.059Z,6.93
2023-05-14T01:20:41.562Z,5.95
2023-05-14T01:23:08.752Z,6.47
2023-05-14T01:25:36.896Z,6.10
2023-05-14T01:28:04.056Z,5.70
2023-05-14T01:30:34.004Z,5.88
2023-05-14T01:33:02.926Z,6.15
2023-05-14T01:35:30.967Z,6.50
2023-05-14T01:38:01.584Z,6.05
2023-05-14T01:40:29.682Z,6.80
2023-05-14T01:42:59.182Z,6.50
2023-05-14T01:45:26.652Z,6.85
2023-05-14T01:47:56.222Z,5.22
2023-05-14T01:50:23.907Z,5.63
2023-05-14T01:52:51.257Z,6.45
2023-05-14T01:55:18.919Z,6.63
2023-05-14T01:57:46.073Z,6.32
2023-05-14T02:00:13.720Z,5.93
2023-05-14T02:02:41.086Z,5.93
2023-05-14T02:05:09.039Z,5.95
2023-05-14T02:07:36.241Z,6.35
2023-05-14T02:10:06.770Z,6.70
2023-05-14T02:12:34.069Z,5.88
2023-05-14T02:15:02.029Z,6.47
2023-05-14T02:17:29.286Z,6.50
2023-05-14T02:19:56.775Z,5.63
2023-05-14T02:22:24.037Z,6.45
2023-05-14T02:24:51.590Z,6.00
2023-05-14T02:27:18.820Z,5.78
2023-05-14T02:29:46.352Z,6.18
2023-05-14T02:32:16.322Z,6.20
2023-05-14T02:34:43.948Z,6.65
2023-05-14T02:37:11.201Z,6.18
2023-05-14T02:39:38.716Z,6.97
2023-05-14T02:42:06.040Z,6.60
2023-05-14T02:44:33.597Z,6.03
2023-05-14T02:47:00.850Z,6.10
2023-05-14T02:49:28.329Z,6.22
2023-05-14T02:51:55.557Z,6.05
2023-05-14T02:54:25.080Z,6.10
2023-05-14T02:56:52.319Z,5.60
2023-05-14T02:59:19.812Z,5.85
2023-05-14T03:01:56.488Z,9.20
2023-05-14T03:04:35.108Z,6.55
2023-05-14T03:07:08.047Z,6.05
2023-05-14T03:09:37.965Z,6.53
2023-05-14T03:12:05.797Z,6.15
2023-05-14T03:14:33.332Z,6.60
2023-05-14T03:17:00.734Z,5.68
2023-05-14T03:19:28.248Z,5.88
2023-05-14T03:21:55.528Z,6.28
2023-05-14T03:24:23.027Z,6.30
2023-05-14T03:26:53.069Z,6.35
2023-05-14T03:29:20.546Z,6.82
2023-05-14T03:31:47.770Z,6.20
2023-05-14T03:34:15.257Z,6.72
2023-05-14T03:36:42.545Z,6.43
2023-05-14T03:39:10.045Z,6.07
2023-05-14T03:41:37.294Z,7.28
2023-05-14T03:44:04.893Z,6.40
2023-05-14T03:46:32.200Z,5.95
2023-05-14T03:48:59.833Z,6.15
2023-05-14T03:51:28.272Z,6.68
2023-05-14T03:53:55.782Z,6.85
2023-05-14T03:56:22.954Z,6.53
2023-05-14T03:58:50.424Z,6.43
2023-05-14T04:01:17.640Z,5.90
2023-05-14T04:03:45.426Z,6.60
2023-05-14T04:06:12.934Z,6.20
2023-05-14T04:08:40.444Z,5.80
2023-05-14T04:11:07.808Z,5.60
2023-05-14T04:13:35.285Z,6.18
2023-05-14T04:16:02.581Z,5.70
2023-05-14T04:18:30.175Z,6.18
2023-05-14T04:20:57.398Z,5.88
2023-05-14T04:23:24.841Z,5.60
2023-05-14T04:25:52.035Z,5.68
2023-05-14T04:28:19.599Z,6.25
2023-05-14T04:30:48.126Z,5.82
2023-05-14T04:33:15.654Z,5.53
2023-05-14T04:35:43.617Z,6.20
2023-05-14T04:38:11.209Z,5.88
2023-05-14T04:40:38.498Z,5.75
2023-05-14T04:43:06.011Z,5.70
2023-05-14T04:45:34.288Z,5.85
2023-05-14T04:48:03.071Z,5.43
2023-05-14T04:50:30.319Z,5.13
2023-05-14T04:52:57.780Z,5.45
2023-05-14T04:55:25.009Z,5.88
2023-05-14T04:57:52.608Z,5.63
2023-05-14T05:00:19.819Z,6.15
2023-05-14T05:02:47.891Z,5.35
2023-05-14T05:05:15.101Z,6.25
2023-05-14T05:07:42.623Z,5.72
2023-05-14T05:10:09.814Z,6.05
2023-05-14T05:12:37.305Z,6.47
2023-05-14T05:15:04.821Z,6.05
2023-05-14T05:17:32.378Z,5.85
2023-05-14T05:20:01.013Z,5.93
2023-05-14T05:22:28.513Z,6.30
2023-05-14T05:24:55.682Z,6.03
2023-05-14T05:27:23.204Z,6.30
2023-05-14T05:29:50.382Z,6.50
2023-05-14T05:32:17.892Z,6.18
2023-05-14T05:34:45.105Z,6.18
2023-05-14T05:37:14.454Z,5.97
2023-05-14T05:39:41.655Z,5.65
2023-05-14T05:42:09.840Z,6.25
2023-05-14T05:44:37.031Z,5.72
2023-05-14T05:47:04.843Z,5.90
2023-05-14T05:49:32.122Z,6.25
2023-05-14T05:51:59.729Z,5.72
2023-05-14T05:54:26.969Z,5.80
2023-05-14T05:56:54.603Z,5.88
2023-05-14T05:59:21.825Z,6.22
2023-05-14T06:02:03.602Z,5.85
2023-05-14T06:04:30.876Z,5.80
2023-05-14T06:07:02.021Z,5.65
2023-05-14T06:09:29.270Z,6.03
2023-05-14T06:11:56.777Z,5.85
2023-05-14T06:14:24.042Z,5.80
2023-05-14T06:16:51.669Z,5.50
2023-05-14T06:19:19.377Z,5.18
2023-05-14T06:21:46.942Z,5.93
2023-05-14T06:24:14.168Z,5.70
2023-05-14T06:26:41.691Z,5.75
2023-05-14T06:29:08.885Z,5.38
2023-05-14T06:31:36.409Z,5.28
2023-05-14T06:34:06.476Z,5.30
2023-05-14T06:36:34.013Z,5.70
2023-05-14T06:39:01.446Z,5.82
2023-05-14T06:41:29.043Z,4.93
2023-05-14T06:43:56.222Z,5.28
2023-05-14T06:46:23.731Z,5.78
2023-05-14T06:48:50.945Z,5.60
2023-05-14T06:51:18.810Z,5.55
2023-05-14T06:53:47.990Z,5.10
2023-05-14T06:56:15.457Z,4.68
2023-05-14T06:58:42.754Z,4.93
2023-05-14T07:01:10.265Z,4.30
2023-05-14T07:03:37.449Z,4.03
2023-05-14T07:06:05.156Z,4.13
2023-05-14T07:08:32.637Z,3.95
2023-05-14T07:11:00.211Z,3.40
2023-05-14T07:13:28.635Z,3.45
2023-05-14T07:15:56.427Z,3.10
2023-05-14T07:18:23.651Z,3.10
2023-05-14T07:20:51.146Z,3.50
2023-05-14T07:23:19.884Z,3.75
2023-05-14T07:25:47.616Z,3.22
2023-05-14T07:28:15.466Z,2.92
2023-05-14T07:30:50.097Z,2.70
2023-05-14T07:33:17.407Z,2.92
2023-05-14T07:35:44.941Z,2.78
2023-05-14T07:38:12.309Z,3.05
2023-05-14T07:40:39.841Z,2.72
2023-05-14T07:43:07.112Z,2.53
2023-05-14T07:45:36.063Z,2.30
2023-05-14T07:48:03.620Z,3.60
2023-05-14T07:50:31.284Z,2.78
2023-05-14T07:52:58.461Z,2.13
2023-05-14T07:55:25.945Z,1.92
2023-05-14T07:57:53.170Z,1.73
2023-05-14T08:00:20.713Z,1.67
2023-05-14T08:02:48.313Z,1.50
2023-05-14T08:05:15.957Z,1.13
2023-05-14T08:07:43.249Z,1.52
2023-05-14T08:10:10.913Z,1.30
2023-05-14T08:12:38.155Z,1.30
2023-05-14T08:15:06.301Z,1.45
2023-05-14T08:17:33.651Z,1.40
2023-05-14T08:20:01.266Z,1.58
2023-05-14T08:22:28.833Z,1.33
2023-05-14T08:24:56.760Z,1.40
2023-05-14T08:27:24.012Z,1.50
2023-05-14T08:29:51.544Z,1.52
2023-05-14T08:32:23.672Z,1.23
2023-05-14T08:34:52.009Z,1.48
2023-05-14T08:37:19.318Z,1.20
2023-05-14T08:39:46.923Z,1.50
2023-05-14T08:42:15.530Z,1.50
2023-05-14T08:44:48.310Z,1.30
2023-05-14T08:47:39.978Z,1.50
2023-05-14T08:50:07.880Z,1.50
2023-05-14T08:52:35.402Z,1.50
2023-05-14T08:55:04.356Z,1.45
2023-05-14T08:57:32.855Z,1.52
2023-05-14T09:00:00.427Z,1.40
2023-05-14T09:02:28.802Z,1.38
2023-05-14T09:05:00.365Z,1.73
2023-05-14T09:09:55.529Z,1.40
2023-05-14T09:12:23.153Z,1.40
2023-05-14T09:14:51.158Z,1.60
2023-05-14T09:17:18.838Z,1.80
2023-05-14T09:19:47.050Z,2.00
2023-05-14T09:22:15.035Z,1.40
2023-05-14T09:24:43.008Z,1.48
2023-05-14T09:27:15.273Z,1.30
2023-05-14T09:29:42.736Z,1.60
2023-05-14T09:32:10.004Z,1.70
2023-05-14T09:34:37.516Z,1.33
2023-05-14T09:37:06.106Z,1.50
2023-05-14T09:39:34.795Z,1.77
2023-05-14T09:42:02.208Z,1.52
2023-05-14T09:44:29.672Z,1.35
2023-05-14T09:46:56.960Z,1.60
2023-05-14T09:49:24.545Z,1.55
2023-05-14T09:51:54.875Z,1.48
2023-05-14T09:54:22.485Z,1.30
2023-05-14T09:56:49.696Z,1.40
2023-05-14T09:59:17.149Z,1.45
2023-05-14T10:01:44.620Z,1.52
2023-05-14T10:04:12.587Z,1.30
2023-05-14T10:06:40.101Z,1.60
2023-05-14T10:09:12.648Z,1.80
2023-05-14T10:11:42.970Z,1.73
2023-05-14T10:14:14.691Z,1.67
2023-05-14T10:19:10.581Z,1.17
2023-05-14T10:21:38.886Z,1.40
2023-05-14T10:24:07.123Z,1.40
2023-05-14T10:26:36.094Z,1.30
2023-05-14T10:29:03.597Z,1.48
2023-05-14T10:31:49.596Z,1.80
2023-05-14T10:34:35.713Z,1.35
2023-05-14T10:37:07.707Z,1.25
2023-05-14T10:39:44.381Z,1.60
2023-05-14T10:42:13.891Z,1.50
2023-05-14T10:44:48.168Z,1.80
2023-05-14T10:47:15.936Z,1.52
2023-05-14T10:49:44.455Z,1.52
2023-05-14T10:52:12.148Z,1.42
2023-05-14T10:54:39.764Z,1.55
2023-05-14T10:57:11.161Z,1.50
2023-05-14T10:59:41.431Z,1.70
2023-05-14T11:02:19.103Z,1.20
2023-05-14T11:04:53.276Z,1.50
2023-05-14T11:07:23.653Z,1.35
2023-05-14T11:09:51.584Z,1.40
2023-05-14T11:12:18.797Z,1.35
2023-05-14T11:14:47.083Z,1.45
2023-05-14T11:17:14.902Z,1.50
2023-05-14T11:19:43.394Z,1.42
2023-05-14T11:22:10.652Z,1.20
2023-05-14T11:24:38.203Z,1.27
2023-05-14T11:27:07.049Z,1.45
2023-05-14T11:29:35.342Z,1.45
2023-05-14T11:32:06.256Z,1.40
2023-05-14T11:34:33.993Z,1.67
2023-05-14T11:37:05.192Z,1.60
2023-05-14T11:39:32.865Z,1.50
2023-05-14T11:42:02.550Z,1.33
2023-05-14T11:44:30.365Z,1.70
2023-05-14T11:46:58.084Z,1.60
2023-05-14T11:49:28.106Z,2.53
2023-05-14T11:52:01.875Z,1.60
2023-05-14T11:54:29.677Z,1.40
2023-05-14T11:56:57.382Z,1.80
2023-05-14T11:59:25.436Z,1.60
2023-05-14T12:01:52.728Z,1.83
2023-05-14T12:04:20.558Z,2.50
2023-05-14T12:06:51.137Z,2.20
2023-05-14T12:09:19.482Z,1.92
2023-05-14T12:11:47.780Z,1.67
2023-05-14T12:14:16.167Z,1.98
2023-05-14T12:16:43.858Z,1.98
2023-05-14T12:19:16.657Z,2.08
2023-05-14T12:21:44.778Z,1.83
2023-05-14T12:24:13.136Z,2.20
2023-05-14T12:26:43.904Z,2.58
2023-05-14T12:29:14.084Z,2.57
2023-05-14T12:31:50.439Z,2.10
2023-05-14T12:34:18.036Z,2.20
2023-05-14T12:36:45.321Z,2.45
2023-05-14T12:39:12.784Z,2.30
2023-05-14T12:41:39.953Z,2.60
2023-05-14T12:44:07.506Z,2.33
2023-05-14T12:46:34.757Z,2.05
2023-05-14T12:49:03.673Z,2.30
2023-05-14T12:51:31.223Z,2.40
2023-05-14T12:53:58.690Z,2.75
2023-05-14T12:56:26.034Z,2.30
2023-05-14T12:58:56.279Z,5.55
2023-05-14T13:01:24.043Z,2.75
2023-05-14T13:03:51.610Z,2.33
2023-05-14T13:06:18.878Z,2.33
2023-05-14T13:08:47.382Z,2.72
2023-05-14T13:11:14.868Z,2.60
2023-05-14T13:13:42.368Z,2.25
2023-05-14T13:16:09.707Z,2.70
2023-05-14T13:18:37.382Z,3.25
2023-05-14T13:21:04.624Z,2.72
2023-05-14T13:23:32.116Z,2.80
2023-05-14T13:25:59.494Z,2.70
2023-05-14T13:28:27.231Z,2.97
2023-05-14T13:31:07.476Z,3.13
2023-05-14T13:33:37.001Z,2.78
2023-05-14T13:36:06.728Z,3.00
2023-05-14T13:38:34.283Z,2.90
2023-05-14T13:41:01.515Z,3.38
2023-05-14T13:43:32.288Z,3.50
2023-05-14T13:46:01.462Z,3.20
2023-05-14T13:48:29.012Z,2.92
2023-05-14T13:50:56.337Z,2.90
2023-05-14T13:53:24.626Z,3.08
2023-05-14T13:55:52.182Z,3.50
2023-05-14T13:58:19.795Z,3.28
2023-05-14T14:00:47.087Z,3.20
2023-05-14T14:03:14.561Z,3.15
2023-05-14T14:05:41.919Z,3.80
2023-05-14T14:08:22.837Z,3.55
2023-05-14T14:10:51.491Z,4.32
2023-05-14T14:13:19.085Z,3.47
2023-05-14T14:15:47.332Z,3.92
2023-05-14T14:18:14.833Z,4.22
2023-05-14T14:20:42.209Z,4.03
2023-05-14T14:23:09.677Z,3.70
2023-05-14T14:25:36.928Z,4.07
2023-05-14T14:28:05.712Z,3.92
2023-05-14T14:30:35.478Z,3.80
2023-05-14T14:33:06.143Z,3.97
2023-05-14T14:35:33.410Z,3.83
2023-05-14T14:38:03.801Z,3.05
2023-05-14T14:40:32.614Z,3.30
2023-05-14T14:43:00.123Z,3.22
2023-05-14T14:45:29.270Z,3.65
2023-05-14T14:50:26.948Z,3.55
2023-05-14T14:52:55.245Z,3.45
2023-05-14T14:55:22.981Z,3.47
2023-05-14T14:57:50.912Z,3.50
2023-05-14T15:00:18.672Z,3.67
2023-05-14T15:02:49.479Z,3.60
2023-05-14T15:05:19.532Z,3.70
2023-05-14T15:07:47.073Z,3.47
2023-05-14T15:10:14.352Z,3.92
2023-05-14T15:12:41.870Z,3.65
2023-05-14T15:15:09.436Z,3.95
2023-05-14T15:17:36.999Z,4.35
2023-05-14T15:20:04.402Z,3.75
2023-05-14T15:22:31.921Z,3.50
2023-05-14T15:24:59.083Z,3.42
2023-05-14T15:27:26.581Z,3.35
2023-05-14T15:29:53.823Z,3.58
2023-05-14T15:32:21.352Z,3.45
2023-05-14T15:34:48.505Z,4.13
2023-05-14T15:37:15.997Z,4.35
2023-05-14T15:39:43.338Z,4.38
2023-05-14T15:42:10.961Z,4.00
2023-05-14T15:44:38.926Z,3.70
2023-05-14T15:47:06.680Z,4.00
2023-05-14T15:49:33.918Z,4.10
2023-05-14T15:52:03.646Z,4.63
2023-05-14T15:54:30.852Z,3.97
2023-05-14T15:56:58.324Z,4.45
2023-05-14T15:59:25.606Z,4.30
2023-05-14T16:01:53.190Z,4.35
2023-05-14T16:04:20.522Z,4.60
2023-05-14T16:06:48.159Z,4.30
2023-05-14T16:09:15.888Z,4.40
2023-05-14T16:11:43.384Z,4.90
2023-05-14T16:14:10.556Z,5.07
2023-05-14T16:16:38.210Z,4.20
2023-05-14T16:19:05.813Z,4.07
2023-05-14T16:21:33.374Z,5.40
2023-05-14T16:24:00.754Z,5.40
2023-05-14T16:26:28.279Z,4.90
2023-05-14T16:28:55.554Z,4.47
2023-05-14T16:31:23.035Z,4.97
2023-05-14T16:33:50.299Z,4.90
2023-05-14T16:36:17.849Z,4.25
2023-05-14T16:39:05.411Z,4.50
2023-05-14T16:41:35.254Z,5.05
2023-05-14T16:44:02.972Z,4.97
2023-05-14T16:46:30.752Z,7.30
2023-05-14T16:48:58.147Z,7.40
2023-05-14T16:51:25.715Z,7.57
2023-05-14T16:53:54.694Z,5.78
2023-05-14T16:56:23.069Z,5.60
2023-05-14T16:58:50.268Z,5.35
2023-05-14T17:01:17.772Z,5.40
2023-05-14T17:03:45.098Z,5.35
2023-05-14T17:06:12.621Z,5.10
2023-05-14T17:08:39.845Z,5.10
2023-05-14T17:11:07.430Z,5.45
2023-05-14T17:13:53.184Z,5.20
2023-05-14T17:16:23.233Z,5.47
2023-05-14T17:18:56.444Z,4.63
2023-05-14T17:21:24.060Z,4.95
2023-05-14T17:23:51.286Z,5.40
2023-05-14T17:26:18.818Z,5.07
2023-05-14T17:28:46.047Z,5.13
2023-05-14T17:31:13.705Z,4.90
2023-05-14T17:33:41.138Z,6.22
2023-05-14T17:36:09.818Z,7.30
2023-05-14T17:38:37.131Z,5.75
2023-05-14T17:41:04.669Z,6.03
2023-05-14T17:43:31.982Z,6.35
2023-05-14T17:45:59.706Z,5.45
2023-05-14T17:48:26.976Z,5.88
2023-05-14T17:50:54.578Z,5.80
2023-05-14T17:53:21.859Z,6.13
2023-05-14T17:55:49.339Z,6.15
2023-05-14T17:58:16.552Z,5.38
2023-05-14T18:00:44.181Z,5.20
2023-05-14T18:03:11.781Z,5.88
2023-05-14T18:05:39.582Z,5.45
2023-05-14T18:08:06.901Z,6.25
2023-05-14T18:10:34.433Z,6.32
2023-05-14T18:13:01.755Z,6.18
2023-05-14T18:15:29.329Z,5.63
2023-05-14T18:17:56.598Z,6.13
2023-05-14T18:20:24.143Z,7.38
2023-05-14T18:22:51.326Z,9.10
2023-05-14T18:25:18.994Z,11.10
2023-05-14T18:27:46.328Z,7.03
2023-05-14T18:30:14.457Z,7.85
2023-05-14T18:32:42.528Z,7.03
2023-05-14T18:35:10.264Z,7.90
2023-05-14T18:37:37.683Z,9.57
2023-05-14T18:40:05.681Z,7.57
2023-05-14T18:42:33.424Z,8.38
2023-05-14T18:45:00.973Z,9.15
2023-05-14T18:47:29.232Z,7.88
2023-05-14T18:49:56.932Z,9.63
2023-05-14T18:52:27.577Z,9.43
2023-05-14T18:54:55.788Z,10.07
2023-05-14T18:57:23.118Z,8.82
2023-05-14T18:59:50.588Z,7.28
2023-05-14T19:02:17.809Z,6.57
2023-05-14T19:04:52.398Z,6.00
2023-05-14T19:07:20.699Z,6.22
2023-05-14T19:09:48.471Z,6.50
2023-05-14T19:12:15.942Z,7.00
2023-05-14T19:14:43.684Z,6.50
2023-05-14T19:17:11.109Z,6.72
2023-05-14T19:19:38.637Z,6.72
2023-05-14T19:22:05.914Z,6.38
2023-05-14T19:24:33.456Z,5.97
2023-05-14T19:27:00.861Z,5.65
2023-05-14T19:29:28.411Z,5.65
2023-05-14T19:31:55.695Z,4.85
2023-05-14T19:34:26.185Z,6.05
2023-05-14T19:36:53.451Z,5.55
2023-05-14T19:39:20.998Z,5.68
2023-05-14T19:41:48.164Z,5.45
2023-05-14T19:44:15.650Z,5.43
2023-05-14T19:46:42.904Z,5.78
2023-05-14T19:49:10.466Z,5.95
2023-05-14T19:51:38.856Z,6.38
2023-05-14T19:54:06.587Z,6.10
2023-05-14T19:56:33.838Z,6.00
2023-05-14T19:59:01.351Z,5.72
2023-05-14T20:01:28.725Z,5.82
2023-05-14T20:03:56.229Z,5.90
2023-05-14T20:06:23.468Z,6.28
2023-05-14T20:08:50.986Z,6.10
2023-05-14T20:11:20.304Z,5.80
2023-05-14T20:13:48.182Z,5.82
2023-05-14T20:16:15.836Z,6.72
2023-05-14T20:18:43.736Z,6.60
2023-05-14T20:21:10.996Z,6.43
2023-05-14T20:23:38.853Z,6.32
2023-05-14T20:26:06.407Z,6.75
2023-05-14T20:28:33.967Z,6.30
2023-05-14T20:31:01.275Z,7.95
2023-05-14T20:33:28.811Z,7.18
2023-05-14T20:35:56.263Z,7.20
2023-05-14T20:38:23.896Z,6.82
2023-05-14T20:40:51.268Z,6.45
2023-05-14T20:43:18.780Z,6.75
2023-05-14T20:45:46.099Z,7.25
2023-05-14T20:48:13.637Z,7.40
2023-05-14T20:50:41.042Z,6.13
2023-05-14T20:53:08.580Z,7.53
2023-05-14T20:55:36.021Z,6.95
2023-05-14T20:58:03.547Z,7.07
2023-05-14T21:00:30.833Z,6.75
2023-05-14T21:03:00.661Z,7.78
2023-05-14T21:05:35.595Z,7.50
2023-05-14T21:08:04.653Z,7.80
2023-05-14T21:10:31.986Z,8.02
2023-05-14T21:13:01.033Z,7.30
2023-05-14T21:15:29.493Z,6.53
2023-05-14T21:17:57.127Z,6.85
2023-05-14T21:20:24.741Z,6.78
2023-05-14T21:22:52.363Z,7.50
2023-05-14T21:25:19.814Z,7.13
2023-05-14T21:27:47.334Z,6.80
2023-05-14T21:30:14.701Z,7.47
2023-05-14T21:32:42.309Z,7.55
2023-05-14T21:35:09.700Z,8.13
2023-05-14T21:37:37.198Z,8.45
2023-05-14T21:40:08.327Z,7.68
2023-05-14T21:42:35.942Z,8.43
2023-05-14T21:45:03.436Z,8.00
2023-05-14T21:47:31.212Z,8.70
2023-05-14T21:49:58.505Z,9.63
2023-05-14T21:52:26.063Z,8.98
2023-05-14T21:54:53.300Z,8.55
2023-05-14T21:57:20.854Z,8.85
2023-05-14T21:59:48.117Z,9.10
2023-05-14T22:02:15.710Z,9.15
2023-05-14T22:04:43.094Z,8.35
2023-05-14T22:07:13.468Z,9.40
2023-05-14T22:09:40.690Z,9.38
2023-05-14T22:12:08.362Z,8.90
2023-05-14T22:14:35.640Z,8.93
2023-05-14T22:17:03.186Z,9.30
2023-05-14T22:19:30.404Z,9.15
2023-05-14T22:21:58.166Z,9.15
2023-05-14T22:24:25.605Z,9.75
2023-05-14T22:26:53.108Z,10.02
2023-05-14T22:29:20.580Z,9.55
2023-05-14T22:31:48.370Z,10.48
2023-05-14T22:34:15.819Z,9.52
2023-05-14T22:36:44.950Z,10.18
2023-05-14T22:39:13.476Z,10.75
2023-05-14T22:41:41.188Z,9.52
2023-05-14T22:44:08.765Z,10.07
2023-05-14T22:46:36.287Z,10.65
2023-05-14T22:49:03.510Z,9.70
2023-05-14T22:51:31.018Z,9.73
2023-05-14T22:53:58.230Z,9.95
2023-05-14T22:56:25.720Z,9.75
2023-05-14T22:58:53.349Z,10.90
2023-05-14T23:01:20.890Z,10.70
2023-05-14T23:03:48.128Z,10.20
2023-05-14T23:06:15.948Z,10.38
2023-05-14T23:08:43.177Z,10.57
2023-05-14T23:11:10.643Z,10.43
2023-05-14T23:13:37.848Z,10.75
2023-05-14T23:16:05.312Z,10.60
2023-05-14T23:18:32.664Z,10.85
2023-05-14T23:21:00.289Z,9.50
2023-05-14T23:23:27.514Z,10.65
2023-05-14T23:25:56.085Z,10.75
2023-05-14T23:28:23.484Z,11.30
2023-05-14T23:30:50.963Z,10.68
2023-05-14T23:33:18.179Z,10.70
2023-05-14T23:35:45.685Z,11.07
2023-05-14T23:38:13.056Z,12.38
2023-05-14T23:40:40.645Z,12.55
2023-05-14T23:43:07.815Z,12.27
2023-05-14T23:45:35.347Z,12.80
2023-05-14T23:48:02.631Z,12.05
2023-05-14T23:50:30.226Z,12.48
2023-05-14T23:52:57.505Z,11.07
2023-05-14T23:55:25.416Z,10.05
2023-05-14T23:57:53.060Z,11.25
